Time;durP1;ratioP1;P1;durP2;ratioP2;P2;SDS_P1;SDS_P2;PMS_P1;PMS_P2;Temp;Humidity;BMP_temperature;BMP_pressure;BME280_temperature;BME280_humidity;BME280_pressure;Samples;Min_cycle;Max_cycle;Signal;HPM_P1;HPM_P2
2022/02/20 00:02:07;;;;;;;1999.90;999.90;;;8.60;99.90;;;;;;4992608;28;20666;-75
2022/02/20 00:04:33;;;;;;;1999.90;999.90;;;8.50;99.90;;;;;;4992330;28;20194;-75
2022/02/20 00:06:58;;;;;;;1999.90;999.90;;;8.60;99.90;;;;;;4992509;28;20162;-74
2022/02/20 00:09:24;;;;;;;1999.90;999.90;;;8.50;99.90;;;;;;4992607;28;20208;-74
2022/02/20 00:11:49;;;;;;;1999.90;999.90;;;8.50;99.90;;;;;;4992485;28;20177;-74
2022/02/20 00:14:15;;;;;;;1999.90;999.90;;;8.50;99.90;;;;;;4992278;28;20190;-75
2022/02/20 00:16:41;;;;;;;1999.90;999.90;;;8.40;99.90;;;;;;4993100;28;20196;-75
2022/02/20 00:19:06;;;;;;;1999.90;999.90;;;8.30;99.90;;;;;;4996437;28;20175;-74
2022/02/20 00:21:32;;;;;;;1999.90;999.90;;;8.30;99.90;;;;;;4996275;28;20256;-75
2022/02/20 00:23:58;;;;;;;1999.90;999.90;;;8.30;99.90;;;;;;4995983;28;20242;-76
2022/02/20 00:26:24;;;;;;;1999.90;999.90;;;8.40;99.90;;;;;;4996298;28;20499;-75
2022/02/20 00:28:49;;;;;;;1999.90;999.90;;;8.40;99.90;;;;;;4994918;28;20182;-76
2022/02/20 00:31:15;;;;;;;1999.90;999.90;;;8.40;99.90;;;;;;4996242;28;20189;-74
2022/02/20 00:33:40;;;;;;;1999.90;999.90;;;8.40;99.90;;;;;;4996044;28;20225;-75
2022/02/20 00:36:06;;;;;;;1999.90;999.90;;;8.30;99.90;;;;;;4995911;28;20400;-74
2022/02/20 00:38:32;;;;;;;1999.90;999.90;;;8.30;99.90;;;;;;4994732;28;20229;-75
2022/02/20 00:40:57;;;;;;;1999.90;999.90;;;8.30;99.90;;;;;;4996011;28;20162;-75
2022/02/20 00:43:23;;;;;;;1999.90;999.90;;;8.20;99.90;;;;;;4996020;28;20530;-75
2022/02/20 00:45:49;;;;;;;1999.90;999.90;;;8.20;99.90;;;;;;4994514;28;20201;-75
2022/02/20 00:48:19;;;;;;;1999.90;999.90;;;8.20;99.90;;;;;;4995953;28;20174;-75
2022/02/20 00:50:45;;;;;;;1999.90;999.90;;;8.20;99.90;;;;;;4995939;28;20200;-74
2022/02/20 00:53:11;;;;;;;1999.90;999.90;;;8.10;99.90;;;;;;4995636;28;20417;-75
2022/02/20 00:55:37;;;;;;;1999.90;999.90;;;8.00;99.90;;;;;;4995537;28;20416;-74
2022/02/20 00:58:02;;;;;;;1999.90;999.90;;;8.00;99.90;;;;;;4995602;28;20172;-74
2022/02/20 01:00:28;;;;;;;1999.90;999.90;;;7.90;99.90;;;;;;4995565;28;20958;-75
2022/02/20 01:02:53;;;;;;;1999.90;999.90;;;7.80;99.90;;;;;;4995532;28;20185;-74
2022/02/20 01:05:20;;;;;;;1999.90;999.90;;;7.70;99.90;;;;;;4995347;28;20201;-74
2022/02/20 01:07:46;;;;;;;1999.90;999.90;;;7.60;99.90;;;;;;4995506;28;20253;-74
2022/02/20 01:10:14;;;;;;;1999.90;999.90;;;7.60;99.90;;;;;;4995406;28;20974;-75
2022/02/20 01:12:40;;;;;;;1999.90;999.90;;;7.50;99.90;;;;;;4995272;28;20432;-74
2022/02/20 01:15:07;;;;;;;1999.90;999.90;;;7.60;99.90;;;;;;4995056;28;20401;-75
2022/02/20 01:17:33;;;;;;;1999.90;999.90;;;7.50;99.90;;;;;;4995214;28;20515;-75
2022/02/20 01:19:58;;;;;;;1999.90;999.90;;;7.40;99.90;;;;;;4995281;28;20451;-74
2022/02/20 01:22:24;;;;;;;1999.90;999.90;;;7.40;99.90;;;;;;4994935;28;20240;-75
2022/02/20 01:24:51;;;;;;;1999.90;999.90;;;7.30;99.90;;;;;;4994866;28;20849;-75
2022/02/20 01:27:17;;;;;;;1999.90;999.90;;;7.30;99.90;;;;;;4995206;28;20158;-75
2022/02/20 01:29:42;;;;;;;1999.90;999.90;;;7.30;99.90;;;;;;4993813;28;20422;-75
2022/02/20 01:32:08;;;;;;;1999.90;999.90;;;7.20;99.90;;;;;;4993709;28;20906;-74
2022/02/20 01:34:34;;;;;;;1999.90;999.90;;;7.20;99.90;;;;;;4994677;28;20433;-75
2022/02/20 01:37:00;;;;;;;1999.90;999.90;;;7.20;99.90;;;;;;4994946;28;20413;-75
2022/02/20 01:39:25;;;;;;;1999.90;999.90;;;7.20;99.90;;;;;;4994864;28;20173;-75
2022/02/20 01:41:52;;;;;;;1999.90;999.90;;;7.20;99.90;;;;;;4994845;28;20224;-74
2022/02/20 01:44:18;;;;;;;1999.90;999.90;;;7.20;99.90;;;;;;4994382;28;20686;-75
2022/02/20 01:46:46;;;;;;;1999.90;999.90;;;7.10;99.90;;;;;;4994699;28;20401;-75
2022/02/20 01:49:13;;;;;;;1999.90;999.90;;;7.10;99.90;;;;;;4994667;28;20408;-75
2022/02/20 01:51:39;;;;;;;1999.90;999.90;;;7.00;99.90;;;;;;4994630;28;20409;-74
2022/02/20 01:54:05;;;;;;;1999.90;999.90;;;6.90;99.90;;;;;;4994162;28;20919;-75
2022/02/20 01:56:30;;;;;;;1999.90;999.90;;;6.90;99.90;;;;;;4994559;28;20174;-75
2022/02/20 01:58:56;;;;;;;1999.90;999.90;;;6.90;99.90;;;;;;4994535;28;20192;-74
2022/02/20 02:01:22;;;;;;;1999.90;999.90;;;6.80;99.90;;;;;;4994389;28;20169;-75
2022/02/20 02:03:47;;;;;;;1999.90;999.90;;;6.80;99.90;;;;;;4994142;28;20240;-74
2022/02/20 02:06:13;;;;;;;1999.90;999.90;;;6.80;99.90;;;;;;4992842;28;20247;-76
2022/02/20 02:08:40;;;;;;;1999.90;999.90;;;6.80;99.90;;;;;;4994352;28;20193;-75
2022/02/20 02:11:05;;;;;;;1999.90;999.90;;;6.80;99.90;;;;;;4994312;28;20253;-75
2022/02/20 02:13:31;;;;;;;1999.90;999.90;;;6.70;99.90;;;;;;4994139;28;20858;-75
2022/02/20 02:15:56;;;;;;;1999.90;999.90;;;6.60;99.90;;;;;;4993870;28;20256;-76
2022/02/20 02:18:22;;;;;;;1999.90;999.90;;;6.50;99.90;;;;;;4994233;28;20174;-75
2022/02/20 02:20:48;;;;;;;1999.90;999.90;;;6.40;99.90;;;;;;4994656;28;20173;-75
2022/02/20 02:23:19;;;;;;;1999.90;999.90;;;6.40;99.90;;;;;;4994298;28;20790;-75
2022/02/20 02:25:47;;;;;;;1999.90;999.90;;;6.30;99.90;;;;;;4994611;28;20973;-74
2022/02/20 02:28:13;;;;;;;1999.90;999.90;;;6.40;99.90;;;;;;4994648;28;20465;-75
2022/02/20 02:30:39;;;;;;;1999.90;999.90;;;6.30;99.90;;;;;;4994869;28;20401;-75
2022/02/20 02:33:04;;;;;;;1999.90;999.90;;;6.30;99.90;;;;;;4994756;28;20194;-75
2022/02/20 02:35:31;;;;;;;1999.90;999.90;;;6.20;99.90;;;;;;4994087;28;20166;-75
2022/02/20 02:37:57;;;;;;;1999.90;999.90;;;6.10;99.90;;;;;;4994391;28;20747;-75
2022/02/20 02:40:22;;;;;;;1999.90;999.90;;;6.10;99.90;;;;;;4994035;28;20759;-74
2022/02/20 02:42:49;;;;;;;1999.90;999.90;;;6.10;99.90;;;;;;4994771;28;20439;-75
2022/02/20 02:45:15;;;;;;;1999.90;999.90;;;6.10;99.90;;;;;;4993999;28;20193;-76
2022/02/20 02:47:47;;;;;;;1999.90;999.90;;;6.00;99.90;;;;;;4994625;28;20411;-75
2022/02/20 02:50:13;;;;;;;1999.90;999.90;;;6.00;99.90;;;;;;4994711;28;20400;-75
2022/02/20 02:52:38;;;;;;;1999.90;999.90;;;6.00;99.90;;;;;;4994502;28;20957;-75
2022/02/20 02:55:05;;;;;;;1999.90;999.90;;;6.00;99.90;;;;;;4992426;28;20412;-75
2022/02/20 02:57:31;;;;;;;1999.90;999.90;;;5.90;99.90;;;;;;4993472;28;20240;-75
2022/02/20 02:59:58;;;;;;;1999.90;999.90;;;5.90;99.90;;;;;;4993307;28;20463;-75
2022/02/20 03:02:24;;;;;;;1999.90;999.90;;;5.80;99.90;;;;;;4993245;28;20415;-75
2022/02/20 03:04:50;;;;;;;1999.90;999.90;;;5.80;99.90;;;;;;4993094;28;20445;-75
2022/02/20 03:07:15;;;;;;;1999.90;999.90;;;5.80;99.90;;;;;;4993288;28;20177;-75
2022/02/20 03:09:41;;;;;;;1999.90;999.90;;;5.70;99.90;;;;;;4993139;28;20260;-75
2022/02/20 03:12:08;;;;;;;1999.90;999.90;;;5.70;99.90;;;;;;4993161;28;20176;-76
2022/02/20 03:14:34;;;;;;;1999.90;999.90;;;5.60;99.90;;;;;;4992698;28;20603;-75
2022/02/20 03:17:00;;;;;;;1999.90;999.90;;;5.60;99.90;;;;;;4993090;28;20417;-75
2022/02/20 03:19:26;;;;;;;1999.90;999.90;;;5.60;99.90;;;;;;4993059;28;20411;-76
2022/02/20 03:21:51;;;;;;;1999.90;999.90;;;5.60;99.90;;;;;;4991872;28;20177;-75
2022/02/20 03:24:17;;;;;;;1999.90;999.90;;;5.60;99.90;;;;;;4992598;28;20340;-75
2022/02/20 03:26:43;;;;;;;1999.90;999.90;;;5.60;99.90;;;;;;4992939;28;20212;-75
2022/02/20 03:29:08;;;;;;;1999.90;999.90;;;5.60;99.90;;;;;;4992964;28;20753;-75
2022/02/20 03:31:34;;;;;;;1999.90;999.90;;;5.50;99.90;;;;;;4992834;28;20165;-75
2022/02/20 03:34:00;;;;;;;1999.90;999.90;;;5.50;99.90;;;;;;4992570;28;20236;-75
2022/02/20 03:36:25;;;;;;;1999.90;999.90;;;5.50;99.90;;;;;;4992784;28;20207;-76
2022/02/20 03:38:51;;;;;;;1999.90;999.90;;;5.60;99.90;;;;;;4992767;28;20527;-75
2022/02/20 03:41:17;;;;;;;1999.90;999.90;;;5.50;99.90;;;;;;4992697;28;20245;-75
2022/02/20 03:43:43;;;;;;;1999.90;999.90;;;5.60;99.90;;;;;;4992613;28;20288;-75
2022/02/20 03:46:09;;;;;;;1999.90;999.90;;;5.60;99.90;;;;;;4992375;28;20952;-75
2022/02/20 03:48:35;;;;;;;1999.90;999.90;;;5.60;99.90;;;;;;4992657;28;20393;-75
2022/02/20 03:51:00;;;;;;;1999.90;999.90;;;5.50;99.90;;;;;;4992079;28;20750;-75
2022/02/20 03:53:26;;;;;;;1999.90;999.90;;;5.60;99.90;;;;;;4992289;28;20190;-75
2022/02/20 03:55:52;;;;;;;1999.90;999.90;;;5.60;99.90;;;;;;4992482;28;20666;-75
2022/02/20 03:58:18;;;;;;;1999.90;999.90;;;5.50;99.90;;;;;;4992648;28;20174;-75
2022/02/20 04:00:43;;;;;;;1999.90;999.90;;;5.50;99.90;;;;;;4992561;28;20177;-75
2022/02/20 04:03:09;;;;;;;1999.90;999.90;;;5.60;99.90;;;;;;4992651;28;20452;-75
2022/02/20 04:05:34;;;;;;;1999.90;999.90;;;5.60;99.90;;;;;;4992216;28;20200;-75
2022/02/20 04:08:00;;;;;;;1999.90;999.90;;;5.60;99.90;;;;;;4992578;28;20240;-75
2022/02/20 04:10:26;;;;;;;1999.90;999.90;;;5.70;99.90;;;;;;4992966;28;20884;-75
2022/02/20 04:12:52;;;;;;;1999.90;999.90;;;5.60;99.90;;;;;;4993805;28;20531;-75
2022/02/20 04:15:18;;;;;;;1999.90;999.90;;;5.60;99.90;;;;;;4993837;28;20405;-75
2022/02/20 04:17:47;;;;;;;1999.90;999.90;;;5.60;99.90;;;;;;4994094;28;20415;-75
2022/02/20 04:20:15;;;;;;;1999.90;999.90;;;5.70;99.90;;;;;;4993599;28;20174;-75
2022/02/20 04:22:42;;;;;;;1999.90;999.90;;;5.60;99.90;;;;;;4993684;28;20448;-75
2022/02/20 04:25:09;;;;;;;1999.90;999.90;;;5.70;99.90;;;;;;4993640;28;20448;-75
2022/02/20 04:27:35;;;;;;;1999.90;999.90;;;5.80;99.90;;;;;;4993829;28;20451;-75
2022/02/20 04:30:01;;;;;;;1999.90;999.90;;;5.70;99.90;;;;;;4993580;28;20432;-75
2022/02/20 04:32:26;;;;;;;1999.90;999.90;;;5.80;99.90;;;;;;4993451;28;20178;-76
2022/02/20 04:34:52;;;;;;;1999.90;999.90;;;5.80;99.90;;;;;;4991966;28;20174;-75
2022/02/20 04:37:17;;;;;;;1999.90;999.90;;;5.90;99.90;;;;;;4993483;28;20208;-75
2022/02/20 04:39:43;;;;;;;1999.90;999.90;;;5.90;99.90;;;;;;4993556;28;20249;-76
2022/02/20 04:42:09;;;;;;;1999.90;999.90;;;5.90;99.90;;;;;;4993444;28;20170;-75
2022/02/20 04:44:34;;;;;;;1999.90;999.90;;;6.00;99.90;;;;;;4993133;28;20198;-75
2022/02/20 04:47:00;;;;;;;1999.90;999.90;;;6.00;99.90;;;;;;4993636;28;20232;-75
2022/02/20 04:49:25;;;;;;;1999.90;999.90;;;6.20;99.90;;;;;;4993605;28;20420;-76
2022/02/20 04:51:51;;;;;;;1999.90;999.90;;;6.30;99.90;;;;;;4993966;28;20170;-75
2022/02/20 04:54:17;;;;;;;1999.90;999.90;;;6.30;99.90;;;;;;4993330;28;20525;-76
2022/02/20 04:56:43;;;;;;;1999.90;999.90;;;6.40;99.90;;;;;;4993485;28;20253;-75
2022/02/20 04:59:13;;;;;;;1999.90;999.90;;;6.40;99.90;;;;;;4993706;28;20166;-76
2022/02/20 05:01:39;;;;;;;1999.90;999.90;;;6.50;99.90;;;;;;4993603;28;20409;-75
2022/02/20 05:04:05;;;;;;;1999.90;999.90;;;6.50;99.90;;;;;;4994714;28;20503;-76
2022/02/20 05:06:31;;;;;;;1999.90;999.90;;;6.60;99.90;;;;;;4997014;28;20773;-75
2022/02/20 05:08:57;;;;;;;1999.90;999.90;;;6.60;99.90;;;;;;4996150;28;20508;-76
2022/02/20 05:11:24;;;;;;;1999.90;999.90;;;6.60;99.90;;;;;;4997045;28;20166;-75
2022/02/20 05:13:51;;;;;;;1999.90;999.90;;;6.60;99.90;;;;;;4997106;28;20417;-76
2022/02/20 05:16:20;;;;;;;1999.90;999.90;;;6.50;99.90;;;;;;4996692;28;20411;-75
2022/02/20 05:18:46;;;;;;;1999.90;999.90;;;6.60;99.90;;;;;;4997073;28;20474;-75
2022/02/20 05:21:11;;;;;;;1999.90;999.90;;;6.80;99.90;;;;;;4997584;28;20413;-75
2022/02/20 05:23:37;;;;;;;1999.90;999.90;;;6.90;99.90;;;;;;4996550;28;20236;-75
2022/02/20 05:26:03;;;;;;;1999.90;999.90;;;7.00;99.90;;;;;;4994705;28;20600;-75
2022/02/20 05:28:28;;;;;;;1999.90;999.90;;;7.10;99.90;;;;;;4995055;28;20173;-75
2022/02/20 05:30:54;;;;;;;1999.90;999.90;;;7.20;99.90;;;;;;4995017;28;20171;-75
2022/02/20 05:33:19;;;;;;;1999.90;999.90;;;7.30;99.90;;;;;;4994922;28;20566;-75
2022/02/20 05:35:45;;;;;;;1999.90;999.90;;;7.40;99.90;;;;;;4994635;28;20170;-75
2022/02/20 05:38:11;;;;;;;1999.90;999.90;;;7.50;99.90;;;;;;4994870;28;20200;-75
2022/02/20 05:40:38;;;;;;;1999.90;999.90;;;7.50;99.90;;;;;;4994723;28;20448;-75
2022/02/20 05:43:07;;;;;;;1999.90;999.90;;;7.60;99.90;;;;;;4994763;28;20504;-75
2022/02/20 05:45:33;;;;;;;1999.90;999.90;;;7.60;99.90;;;;;;4994433;28;20452;-75
2022/02/20 05:47:59;;;;;;;1999.90;999.90;;;7.70;99.90;;;;;;4994712;28;20416;-75
2022/02/20 05:50:25;;;;;;;1999.90;999.90;;;7.70;99.90;;;;;;4994738;28;20170;-75
2022/02/20 05:52:50;;;;;;;1999.90;999.90;;;7.80;99.90;;;;;;4994502;28;20181;-76
2022/02/20 05:55:16;;;;;;;1999.90;999.90;;;7.80;99.90;;;;;;4994282;28;20178;-75
2022/02/20 05:57:49;;;;;;;1999.90;999.90;;;7.80;99.90;;;;;;4994499;28;20189;-75
2022/02/20 06:00:21;;;;;;;1999.90;999.90;;;7.90;99.90;;;;;;4994547;28;20196;-75
2022/02/20 06:02:47;;;;;;;1999.90;999.90;;;7.90;99.90;;;;;;4994401;28;20969;-75
2022/02/20 06:05:12;;;;;;;1999.90;999.90;;;7.90;99.90;;;;;;4994046;28;20549;-76
2022/02/20 06:07:38;;;;;;;1999.90;999.90;;;7.90;99.90;;;;;;4994268;28;20166;-76
2022/02/20 06:10:06;;;;;;;1999.90;999.90;;;7.90;99.90;;;;;;4994245;28;20191;-76
2022/02/20 06:12:32;;;;;;;1999.90;999.90;;;7.80;99.90;;;;;;4994233;28;20409;-76
2022/02/20 06:14:58;;;;;;;1999.90;999.90;;;7.80;99.90;;;;;;4993177;28;20924;-76
2022/02/20 06:17:24;;;;;;;1999.90;999.90;;;7.80;99.90;;;;;;4994168;28;20201;-76
2022/02/20 06:19:50;;;;;;;1999.90;999.90;;;7.80;99.90;;;;;;4994126;28;20408;-76
2022/02/20 06:22:16;;;;;;;1999.90;999.90;;;7.80;99.90;;;;;;4994015;28;20412;-76
2022/02/20 06:24:41;;;;;;;1999.90;999.90;;;7.80;99.90;;;;;;4993600;28;20820;-76
2022/02/20 06:27:07;;;;;;;1999.90;999.90;;;7.80;99.90;;;;;;4993952;28;20429;-76
2022/02/20 06:29:33;;;;;;;1999.90;999.90;;;7.80;99.90;;;;;;4992702;28;20166;-76
2022/02/20 06:31:58;;;;;;;1999.90;999.90;;;7.90;99.90;;;;;;4993849;28;20170;-76
2022/02/20 06:34:24;;;;;;;1999.90;999.90;;;7.90;99.90;;;;;;4993510;28;20201;-76
2022/02/20 06:36:50;;;;;;;1999.90;999.90;;;7.90;99.90;;;;;;4993695;28;20507;-76
2022/02/20 06:39:16;;;;;;;1999.90;999.90;;;8.00;99.90;;;;;;4993697;28;20803;-76
2022/02/20 06:41:42;;;;;;;1999.90;999.90;;;8.00;99.90;;;;;;4993745;28;20414;-76
2022/02/20 06:44:08;;;;;;;1999.90;999.90;;;7.90;99.90;;;;;;4993242;28;20444;-76
2022/02/20 06:46:34;;;;;;;1999.90;999.90;;;8.00;99.90;;;;;;4993644;28;20166;-76
2022/02/20 06:49:00;;;;;;;1999.90;999.90;;;7.90;99.90;;;;;;4993464;28;20162;-76
2022/02/20 06:51:26;;;;;;;1999.90;999.90;;;7.90;99.90;;;;;;4993458;28;20409;-76
2022/02/20 06:53:52;;;;;;;1999.90;999.90;;;7.90;99.90;;;;;;4993280;28;20188;-75
2022/02/20 06:56:17;;;;;;;1999.90;999.90;;;7.90;99.90;;;;;;4993122;28;20401;-76
2022/02/20 06:58:43;;;;;;;1999.90;999.90;;;7.90;99.90;;;;;;4993488;28;20162;-76
2022/02/20 07:01:09;;;;;;;1999.90;999.90;;;8.00;99.90;;;;;;4993427;28;20166;-76
2022/02/20 07:03:35;;;;;;;1999.90;999.90;;;8.00;99.90;;;;;;4993216;28;20425;-76
2022/02/20 07:06:00;;;;;;;1999.90;999.90;;;8.00;99.90;;;;;;4992936;28;20217;-76
2022/02/20 07:08:26;;;;;;;1999.90;999.90;;;8.10;99.90;;;;;;4991897;28;20210;-77
2022/02/20 07:10:52;;;;;;;1999.90;999.90;;;8.10;99.90;;;;;;4993264;28;20166;-77
2022/02/20 07:13:17;;;;;;;1999.90;999.90;;;8.20;99.90;;;;;;4993645;28;20260;-76
2022/02/20 07:15:43;;;;;;;1999.90;999.90;;;8.20;99.90;;;;;;4993766;28;20432;-76
2022/02/20 07:18:08;;;;;;;1999.90;999.90;;;8.10;99.90;;;;;;4995187;28;20188;-76
2022/02/20 07:20:34;;;;;;;1999.90;999.90;;;8.10;99.90;;;;;;4996457;28;20232;-77
2022/02/20 07:23:00;;;;;;;1999.90;999.90;;;8.10;99.90;;;;;;4995959;28;20597;-76
2022/02/20 07:25:26;;;;;;;1999.90;999.90;;;8.00;99.90;;;;;;4994869;28;20456;-76
2022/02/20 07:27:54;;;;;;;1999.90;999.90;;;8.10;99.90;;;;;;4998313;28;20184;-76
2022/02/20 07:30:21;;;;;;;1999.90;999.90;;;8.10;99.90;;;;;;4998558;28;20161;-76
2022/02/20 07:32:47;;;;;;;1999.90;999.90;;;8.10;99.90;;;;;;4999570;28;20430;-75
2022/02/20 07:35:13;;;;;;;1999.90;999.90;;;8.10;99.90;;;;;;4999838;28;20417;-77
2022/02/20 07:37:39;;;;;;;1999.90;999.90;;;8.10;99.90;;;;;;4999981;28;20503;-77
2022/02/20 07:40:07;;;;;;;1999.90;999.90;;;8.10;99.90;;;;;;4998924;28;20208;-77
2022/02/20 07:42:33;;;;;;;1999.90;999.90;;;8.10;99.90;;;;;;4999555;28;20170;-77
2022/02/20 07:44:59;;;;;;;1999.90;999.90;;;8.20;99.90;;;;;;5000737;28;20966;-76
2022/02/20 07:47:26;;;;;;;1999.90;999.90;;;8.20;99.90;;;;;;5000416;28;20404;-77
2022/02/20 07:49:52;;;;;;;1999.90;999.90;;;8.10;99.90;;;;;;4999754;28;20460;-78
2022/02/20 07:52:18;;;;;;;1999.90;999.90;;;8.10;99.90;;;;;;4999401;28;20409;-79
2022/02/20 07:54:44;;;;;;;1999.90;999.90;;;8.10;99.90;;;;;;5000020;28;20436;-76
2022/02/20 07:57:09;;;;;;;1999.90;999.90;;;8.20;99.90;;;;;;5000424;28;20413;-77
2022/02/20 07:59:36;;;;;;;1999.90;999.90;;;8.20;99.90;;;;;;5001778;28;20213;-77
2022/02/20 08:02:02;;;;;;;1999.90;999.90;;;8.20;99.90;;;;;;5000741;28;20165;-77
2022/02/20 08:04:28;;;;;;;1999.90;999.90;;;8.20;99.90;;;;;;5001605;28;21026;-76
2022/02/20 08:06:54;;;;;;;1999.90;999.90;;;8.20;99.90;;;;;;5001502;28;20404;-77
2022/02/20 08:09:19;;;;;;;1999.90;999.90;;;8.30;99.90;;;;;;5002757;28;20168;-77
2022/02/20 08:11:45;;;;;;;1999.90;999.90;;;8.30;99.90;;;;;;4996748;28;20185;-76
2022/02/20 08:14:11;;;;;;;1999.90;999.90;;;8.30;99.90;;;;;;4992552;28;20190;-75
2022/02/20 08:16:37;;;;;;;1999.90;999.90;;;8.30;99.90;;;;;;4992609;28;20178;-78
2022/02/20 08:19:03;;;;;;;1999.90;999.90;;;8.30;99.90;;;;;;4992468;28;20184;-77
2022/02/20 08:21:29;;;;;;;1999.90;999.90;;;8.40;99.90;;;;;;4992471;28;20409;-77
2022/02/20 08:23:55;;;;;;;1999.90;999.90;;;8.50;99.90;;;;;;4992308;28;20500;-77
2022/02/20 08:26:22;;;;;;;1999.90;999.90;;;8.50;99.90;;;;;;4992428;28;20260;-77
2022/02/20 08:28:48;;;;;;;1999.90;999.90;;;8.50;99.90;;;;;;4992559;28;20410;-75
2022/02/20 08:31:14;;;;;;;1999.90;999.90;;;8.70;99.90;;;;;;4992897;28;20895;-75
2022/02/20 08:33:40;;;;;;;1999.90;999.90;;;8.60;99.90;;;;;;4992369;28;20831;-75
2022/02/20 08:36:06;;;;;;;1999.90;999.90;;;8.70;99.90;;;;;;4992351;28;20548;-75
2022/02/20 08:38:32;;;;;;;1999.90;999.90;;;8.70;99.90;;;;;;4994330;28;20496;-75
2022/02/20 08:40:58;;;;;;;1999.90;999.90;;;8.70;99.90;;;;;;4996144;28;20552;-75
2022/02/20 08:43:26;;;;;;;1999.90;999.90;;;8.70;99.90;;;;;;4995988;28;20432;-75
2022/02/20 08:45:51;;;;;;;1999.90;999.90;;;8.70;99.90;;;;;;4995898;28;20658;-75
2022/02/20 08:48:17;;;;;;;1999.90;999.90;;;8.70;99.90;;;;;;4995823;28;20414;-76
2022/02/20 08:50:43;;;;;;;1999.90;999.90;;;8.70;99.90;;;;;;4995878;28;20178;-75
2022/02/20 08:53:11;;;;;;;1999.90;999.90;;;8.80;99.90;;;;;;4995713;28;20967;-75
2022/02/20 08:55:36;;;;;;;1999.90;999.90;;;8.80;99.90;;;;;;4995521;28;20418;-74
2022/02/20 08:58:02;;;;;;;1999.90;999.90;;;8.80;99.90;;;;;;4995675;28;20771;-75
2022/02/20 09:00:28;;;;;;;1999.90;999.90;;;8.80;99.90;;;;;;4995616;28;20175;-75
2022/02/20 09:02:54;;;;;;;1999.90;999.90;;;8.90;99.90;;;;;;4995502;28;20448;-76
2022/02/20 09:05:20;;;;;;;1999.90;999.90;;;9.00;99.90;;;;;;4995127;28;20491;-76
2022/02/20 09:07:45;;;;;;;1999.90;999.90;;;9.10;99.90;;;;;;4995559;28;20254;-76
2022/02/20 09:10:11;;;;;;;1999.90;999.90;;;9.10;99.90;;;;;;4995484;28;20176;-76
2022/02/20 09:12:37;;;;;;;1999.90;999.90;;;9.30;99.90;;;;;;4995198;28;20201;-76
2022/02/20 09:15:04;;;;;;;1999.90;999.90;;;9.30;99.90;;;;;;4995059;28;20169;-76
2022/02/20 09:17:30;;;;;;;1999.90;999.90;;;9.40;99.90;;;;;;4995322;28;20491;-76
2022/02/20 09:19:56;;;;;;;1999.90;999.90;;;9.50;99.90;;;;;;4995291;28;20862;-76
2022/02/20 09:22:21;;;;;;;1999.90;999.90;;;9.50;99.90;;;;;;4994990;28;20230;-76
2022/02/20 09:24:47;;;;;;;1999.90;999.90;;;9.50;99.90;;;;;;4994895;28;20230;-76
2022/02/20 09:27:13;;;;;;;1999.90;999.90;;;9.50;99.90;;;;;;4995156;28;20178;-76
2022/02/20 09:29:38;;;;;;;1999.90;999.90;;;9.60;99.90;;;;;;4995111;28;20173;-75
2022/02/20 09:32:05;;;;;;;1999.90;999.90;;;9.70;99.90;;;;;;4995119;28;20167;-75
2022/02/20 09:34:30;;;;;;;1999.90;999.90;;;9.80;99.90;;;;;;4994646;28;20274;-76
2022/02/20 09:36:56;;;;;;;1999.90;999.90;;;9.80;99.90;;;;;;4994971;28;21047;-75
2022/02/20 09:39:22;;;;;;;1999.90;999.90;;;9.80;99.90;;;;;;4994931;28;20182;-75
2022/02/20 09:41:48;;;;;;;1999.90;999.90;;;9.90;99.90;;;;;;4994906;28;20256;-75
2022/02/20 09:44:13;;;;;;;1999.90;999.90;;;9.90;99.90;;;;;;4993087;28;20452;-75
2022/02/20 09:46:44;;;;;;;1999.90;999.90;;;9.80;99.90;;;;;;4994764;28;20170;-75
2022/02/20 09:49:10;;;;;;;1999.90;999.90;;;9.90;99.90;;;;;;4993657;28;20261;-75
2022/02/20 09:51:37;;;;;;;1999.90;999.90;;;9.90;99.90;;;;;;4995194;28;20836;-76
2022/02/20 09:54:02;;;;;;;1999.90;999.90;;;9.90;99.90;;;;;;4994362;28;20855;-76
2022/02/20 09:56:28;;;;;;;1999.90;999.90;;;9.90;99.90;;;;;;4995724;28;20414;-76
2022/02/20 09:58:55;;;;;;;1999.90;999.90;;;9.90;99.90;;;;;;4995875;28;20223;-75
2022/02/20 10:01:21;;;;;;;1999.90;999.90;;;9.90;99.90;;;;;;4995691;28;20636;-75
2022/02/20 10:03:48;;;;;;;1999.90;999.90;;;9.90;99.90;;;;;;4995327;28;20426;-75
2022/02/20 10:06:18;;;;;;;1999.90;999.90;;;9.90;99.90;;;;;;4995063;28;20286;-76
2022/02/20 10:08:46;;;;;;;1999.90;999.90;;;10.00;99.90;;;;;;4995188;28;20438;-75
2022/02/20 10:11:28;;;;;;;1999.90;999.90;;;10.00;99.90;;;;;;4994263;28;20943;-75
2022/02/20 10:14:03;;;;;;;1999.90;999.90;;;10.00;99.90;;;;;;4994288;28;20848;-75
2022/02/20 10:16:31;;;;;;;1999.90;999.90;;;10.10;99.90;;;;;;4994221;28;20449;-75
2022/02/20 10:18:58;;;;;;;1999.90;999.90;;;10.10;99.90;;;;;;4994169;28;20413;-74
2022/02/20 10:21:25;;;;;;;1999.90;999.90;;;10.20;99.90;;;;;;4994120;28;20414;-75
2022/02/20 10:23:53;;;;;;;1999.90;999.90;;;10.20;99.90;;;;;;4993958;28;20535;-74
2022/02/20 10:26:21;;;;;;;1999.90;999.90;;;10.20;99.90;;;;;;4993781;28;20468;-75
2022/02/20 10:29:00;;;;;;;1999.90;999.90;;;10.20;99.90;;;;;;4993766;28;20411;-75
2022/02/20 10:31:38;;;;;;;1999.90;999.90;;;10.20;99.90;;;;;;4972781;28;20430;-75
2022/02/20 10:34:18;;;;;;;1999.90;999.90;;;10.20;99.90;;;;;;4973703;28;20942;-75
2022/02/20 10:36:49;;;;;;;1999.90;999.90;;;10.20;99.90;;;;;;4974306;28;20810;-75
2022/02/20 10:39:31;;;;;;;1999.90;999.90;;;10.20;99.90;;;;;;4973785;28;20398;-72
2022/02/20 10:42:01;;;;;;;1999.90;999.90;;;10.20;99.90;;;;;;4974065;28;20465;-72
2022/02/20 10:44:28;;;;;;;1999.90;999.90;;;10.20;99.90;;;;;;4973814;28;20462;-72
2022/02/20 10:47:14;;;;;;;1999.90;999.90;;;10.20;99.90;;;;;;4973784;28;20418;-72
2022/02/20 10:49:40;;;;;;;1999.90;999.90;;;10.20;99.90;;;;;;4974120;28;20411;-72
2022/02/20 10:52:18;;;;;;;1999.90;999.90;;;10.30;99.90;;;;;;4974225;28;20850;-73
2022/02/20 10:55:04;;;;;;;1999.90;999.90;;;10.30;99.90;;;;;;4973253;28;20465;-72
2022/02/20 10:57:36;;;;;;;1999.90;999.90;;;10.30;99.90;;;;;;4973982;28;20781;-74
2022/02/20 11:00:16;;;;;;;1999.90;999.90;;;10.30;99.90;;;;;;4973294;28;20406;-72
2022/02/20 11:02:43;;;;;;;1999.90;999.90;;;10.50;99.90;;;;;;4973334;28;20425;-72
2022/02/20 11:05:12;;;;;;;1999.90;999.90;;;10.60;99.90;;;;;;4973376;28;20971;-73
2022/02/20 11:07:38;;;;;;;1999.90;999.90;;;10.60;99.90;;;;;;4973585;28;20922;-73
2022/02/20 11:10:09;;;;;;;1999.90;999.90;;;10.70;99.90;;;;;;4973870;28;20497;-73
2022/02/20 11:12:36;;;;;;;1999.90;999.90;;;10.70;99.90;;;;;;4973767;28;20926;-74
2022/02/20 11:15:07;;;;;;;1999.90;999.90;;;10.80;99.90;;;;;;4973872;28;20969;-72
2022/02/20 11:17:35;;;;;;;1999.90;999.90;;;10.90;99.90;;;;;;4973717;28;20464;-72
2022/02/20 11:20:06;;;;;;;1999.90;999.90;;;10.90;99.90;;;;;;4973614;28;20420;-73
2022/02/20 11:22:36;;;;;;;1999.90;999.90;;;11.00;99.90;;;;;;4973531;28;20443;-73
2022/02/20 11:25:05;;;;;;;1999.90;999.90;;;11.00;99.90;;;;;;4973259;28;20864;-73
2022/02/20 11:27:34;;;;;;;1999.90;999.90;;;11.00;99.90;;;;;;4973547;28;20519;-75
2022/02/20 11:29:59;;;;;;;1999.90;999.90;;;11.10;99.90;;;;;;4973524;28;20600;-75
2022/02/20 11:32:25;;;;;;;1999.90;999.90;;;11.10;99.90;;;;;;4973139;28;20415;-75
2022/02/20 11:34:51;;;;;;;1999.90;999.90;;;11.10;99.90;;;;;;4973223;28;20247;-75
2022/02/20 11:37:17;;;;;;;1999.90;999.90;;;11.10;99.90;;;;;;4973303;28;20527;-75
2022/02/20 11:39:59;;;;;;;1999.90;999.90;;;11.20;99.90;;;;;;4973396;28;20416;-75
2022/02/20 11:42:24;;;;;;;1999.90;999.90;;;11.20;99.90;;;;;;4973255;28;20183;-75
2022/02/20 11:45:10;;;;;;;1999.90;999.90;;;11.30;99.90;;;;;;4972891;28;20452;-74
2022/02/20 11:47:40;;;;;;;1999.90;999.90;;;11.30;99.90;;;;;;4972848;28;20181;-75
2022/02/20 11:50:14;;;;;;;1999.90;999.90;;;11.40;99.90;;;;;;4973170;28;20404;-75
2022/02/20 11:52:52;;;;;;;1999.90;999.90;;;11.40;99.90;;;;;;4973035;28;20494;-74
2022/02/20 11:55:23;;;;;;;1999.90;999.90;;;11.40;99.90;;;;;;4972814;28;20409;-75
2022/02/20 11:57:50;;;;;;;1999.90;999.90;;;11.50;99.90;;;;;;4973179;28;20533;-75
2022/02/20 12:00:22;;;;;;;1999.90;999.90;;;11.50;99.90;;;;;;4972804;28;20470;-75
2022/02/20 12:03:01;;;;;;;1999.90;999.90;;;11.60;99.90;;;;;;4972960;28;20464;-75
2022/02/20 12:05:26;;;;;;;1999.90;999.90;;;11.60;99.90;;;;;;4972451;28;20441;-74